sensor_id;sensor_type;location;lat;lon;timestamp;temperature;humidity
33476;DHT22;19814;48.224;11.422;2023-12-14T00:01:27;6.50;99.90
33476;DHT22;19814;48.224;11.422;2023-12-14T00:03:52;6.50;99.90
33476;DHT22;19814;48.224;11.422;2023-12-14T00:06:18;6.50;99.90
33476;DHT22;19814;48.224;11.422;2023-12-14T00:08:43;6.50;99.90
33476;DHT22;19814;48.224;11.422;2023-12-14T00:11:09;6.40;99.90
33476;DHT22;19814;48.224;11.422;2023-12-14T00:13:35;6.40;99.90
33476;DHT22;19814;48.224;11.422;2023-12-14T00:16:00;6.40;99.90
33476;DHT22;19814;48.224;11.422;2023-12-14T00:18:26;6.40;99.90
33476;DHT22;19814;48.224;11.422;2023-12-14T00:20:52;6.40;99.90
33476;DHT22;19814;48.224;11.422;2023-12-14T00:23:19;6.40;99.90
33476;DHT22;19814;48.224;11.422;2023-12-14T00:25:45;6.40;99.90
33476;DHT22;19814;48.224;11.422;2023-12-14T00:28:10;6.40;99.90
33476;DHT22;19814;48.224;11.422;2023-12-14T00:30:35;6.50;99.90
33476;DHT22;19814;48.224;11.422;2023-12-14T00:33:01;6.50;99.90
33476;DHT22;19814;48.224;11.422;2023-12-14T00:35:26;6.50;99.90
33476;DHT22;19814;48.224;11.422;2023-12-14T00:37:52;6.50;99.90
33476;DHT22;19814;48.224;11.422;2023-12-14T00:40:17;6.60;99.90
33476;DHT22;19814;48.224;11.422;2023-12-14T00:42:43;6.60;99.90
33476;DHT22;19814;48.224;11.422;2023-12-14T00:45:08;6.60;99.90
33476;DHT22;19814;48.224;11.422;2023-12-14T00:47:34;6.60;99.90
33476;DHT22;19814;48.224;11.422;2023-12-14T00:50:00;6.60;99.90
33476;DHT22;19814;48.224;11.422;2023-12-14T00:52:25;6.60;99.90
33476;DHT22;19814;48.224;11.422;2023-12-14T00:54:51;6.60;99.90
33476;DHT22;19814;48.224;11.422;2023-12-14T00:57:16;6.60;99.90
33476;DHT22;19814;48.224;11.422;2023-12-14T00:59:41;6.60;99.90
33476;DHT22;19814;48.224;11.422;2023-12-14T01:02:07;6.60;99.90
33476;DHT22;19814;48.224;11.422;2023-12-14T01:04:32;6.60;99.90
33476;DHT22;19814;48.224;11.422;2023-12-14T01:06:58;6.60;99.90
33476;DHT22;19814;48.224;11.422;2023-12-14T01:09:23;6.60;99.90
33476;DHT22;19814;48.224;11.422;2023-12-14T01:11:49;6.60;99.90
33476;DHT22;19814;48.224;11.422;2023-12-14T01:14:14;6.60;99.90
33476;DHT22;19814;48.224;11.422;2023-12-14T01:16:40;6.50;99.90
33476;DHT22;19814;48.224;11.422;2023-12-14T01:19:05;6.50;99.90
33476;DHT22;19814;48.224;11.422;2023-12-14T01:21:31;6.50;99.90
33476;DHT22;19814;48.224;11.422;2023-12-14T01:23:56;6.50;99.90
33476;DHT22;19814;48.224;11.422;2023-12-14T01:26:22;6.40;99.90
33476;DHT22;19814;48.224;11.422;2023-12-14T01:28:47;6.40;99.90
33476;DHT22;19814;48.224;11.422;2023-12-14T01:31:13;6.40;99.90
33476;DHT22;19814;48.224;11.422;2023-12-14T01:33:38;6.40;99.90
33476;DHT22;19814;48.224;11.422;2023-12-14T01:36:04;6.40;99.90
33476;DHT22;19814;48.224;11.422;2023-12-14T01:38:29;6.40;99.90
33476;DHT22;19814;48.224;11.422;2023-12-14T01:40:55;6.30;99.90
33476;DHT22;19814;48.224;11.422;2023-12-14T01:43:21;6.40;99.90
33476;DHT22;19814;48.224;11.422;2023-12-14T01:45:47;6.30;99.90
33476;DHT22;19814;48.224;11.422;2023-12-14T01:48:12;6.30;99.90
33476;DHT22;19814;48.224;11.422;2023-12-14T01:50:37;6.30;99.90
33476;DHT22;19814;48.224;11.422;2023-12-14T01:53:03;6.30;99.90
33476;DHT22;19814;48.224;11.422;2023-12-14T01:55:28;6.30;99.90
33476;DHT22;19814;48.224;11.422;2023-12-14T01:57:54;6.30;99.90
33476;DHT22;19814;48.224;11.422;2023-12-14T02:00:22;6.30;99.90
33476;DHT22;19814;48.224;11.422;2023-12-14T02:02:49;6.20;99.90
33476;DHT22;19814;48.224;11.422;2023-12-14T02:05:15;6.30;99.90
33476;DHT22;19814;48.224;11.422;2023-12-14T02:07:40;6.20;99.90
33476;DHT22;19814;48.224;11.422;2023-12-14T02:10:06;6.20;99.90
33476;DHT22;19814;48.224;11.422;2023-12-14T02:12:31;6.20;99.90
33476;DHT22;19814;48.224;11.422;2023-12-14T02:14:59;6.20;99.90
33476;DHT22;19814;48.224;11.422;2023-12-14T02:17:24;6.20;99.90
33476;DHT22;19814;48.224;11.422;2023-12-14T02:19:50;6.20;99.90
33476;DHT22;19814;48.224;11.422;2023-12-14T02:22:16;6.30;99.90
33476;DHT22;19814;48.224;11.422;2023-12-14T02:24:42;6.20;99.90
33476;DHT22;19814;48.224;11.422;2023-12-14T02:27:07;6.20;99.90
33476;DHT22;19814;48.224;11.422;2023-12-14T02:29:32;6.20;99.90
33476;DHT22;19814;48.224;11.422;2023-12-14T02:31:58;6.20;99.90
33476;DHT22;19814;48.224;11.422;2023-12-14T02:34:23;6.20;99.90
33476;DHT22;19814;48.224;11.422;2023-12-14T02:36:50;6.20;99.90
33476;DHT22;19814;48.224;11.422;2023-12-14T02:39:15;6.30;99.90
33476;DHT22;19814;48.224;11.422;2023-12-14T02:41:41;6.20;99.90
33476;DHT22;19814;48.224;11.422;2023-12-14T02:44:06;6.20;99.90
33476;DHT22;19814;48.224;11.422;2023-12-14T02:46:32;6.10;99.90
33476;DHT22;19814;48.224;11.422;2023-12-14T02:48:57;6.10;99.90
33476;DHT22;19814;48.224;11.422;2023-12-14T02:51:23;6.20;99.90
33476;DHT22;19814;48.224;11.422;2023-12-14T02:53:48;6.20;99.90
33476;DHT22;19814;48.224;11.422;2023-12-14T02:56:14;6.20;99.90
33476;DHT22;19814;48.224;11.422;2023-12-14T02:58:39;6.20;99.90
33476;DHT22;19814;48.224;11.422;2023-12-14T03:01:04;6.10;99.90
33476;DHT22;19814;48.224;11.422;2023-12-14T03:03:30;6.10;99.90
33476;DHT22;19814;48.224;11.422;2023-12-14T03:05:56;6.20;99.90
33476;DHT22;19814;48.224;11.422;2023-12-14T03:08:21;6.10;99.90
33476;DHT22;19814;48.224;11.422;2023-12-14T03:10:46;6.20;99.90
33476;DHT22;19814;48.224;11.422;2023-12-14T03:13:12;6.20;99.90
33476;DHT22;19814;48.224;11.422;2023-12-14T03:15:37;6.20;99.90
33476;DHT22;19814;48.224;11.422;2023-12-14T03:18:03;6.20;99.90
33476;DHT22;19814;48.224;11.422;2023-12-14T03:20:29;6.10;99.90
33476;DHT22;19814;48.224;11.422;2023-12-14T03:22:54;6.20;99.90
33476;DHT22;19814;48.224;11.422;2023-12-14T03:25:20;6.10;99.90
33476;DHT22;19814;48.224;11.422;2023-12-14T03:27:45;6.10;99.90
33476;DHT22;19814;48.224;11.422;2023-12-14T03:30:11;6.10;99.90
33476;DHT22;19814;48.224;11.422;2023-12-14T03:32:36;6.10;99.90
33476;DHT22;19814;48.224;11.422;2023-12-14T03:35:01;6.10;99.90
33476;DHT22;19814;48.224;11.422;2023-12-14T03:37:27;6.10;99.90
33476;DHT22;19814;48.224;11.422;2023-12-14T03:39:52;6.10;99.90
33476;DHT22;19814;48.224;11.422;2023-12-14T03:42:18;6.00;99.90
33476;DHT22;19814;48.224;11.422;2023-12-14T03:44:43;6.00;99.90
33476;DHT22;19814;48.224;11.422;2023-12-14T03:47:09;6.10;99.90
33476;DHT22;19814;48.224;11.422;2023-12-14T03:49:36;6.00;99.90
33476;DHT22;19814;48.224;11.422;2023-12-14T03:52:02;6.10;99.90
33476;DHT22;19814;48.224;11.422;2023-12-14T03:54:28;6.00;99.90
33476;DHT22;19814;48.224;11.422;2023-12-14T03:56:53;6.00;99.90
33476;DHT22;19814;48.224;11.422;2023-12-14T03:59:18;6.00;99.90
33476;DHT22;19814;48.224;11.422;2023-12-14T04:01:44;6.00;99.90
33476;DHT22;19814;48.224;11.422;2023-12-14T04:04:09;5.90;99.90
33476;DHT22;19814;48.224;11.422;2023-12-14T04:06:35;5.90;99.90
33476;DHT22;19814;48.224;11.422;2023-12-14T04:09:00;6.00;99.90
33476;DHT22;19814;48.224;11.422;2023-12-14T04:11:26;6.00;99.90
33476;DHT22;19814;48.224;11.422;2023-12-14T04:13:51;5.90;99.90
33476;DHT22;19814;48.224;11.422;2023-12-14T04:16:22;5.90;99.90
33476;DHT22;19814;48.224;11.422;2023-12-14T04:18:48;5.90;99.90
33476;DHT22;19814;48.224;11.422;2023-12-14T04:21:13;5.90;99.90
33476;DHT22;19814;48.224;11.422;2023-12-14T04:23:39;5.90;99.90
33476;DHT22;19814;48.224;11.422;2023-12-14T04:26:04;6.00;99.90
33476;DHT22;19814;48.224;11.422;2023-12-14T04:28:30;6.00;99.90
33476;DHT22;19814;48.224;11.422;2023-12-14T04:30:55;6.00;99.90
33476;DHT22;19814;48.224;11.422;2023-12-14T04:33:21;5.90;99.90
33476;DHT22;19814;48.224;11.422;2023-12-14T04:35:46;5.90;99.90
33476;DHT22;19814;48.224;11.422;2023-12-14T04:38:11;5.90;99.90
33476;DHT22;19814;48.224;11.422;2023-12-14T04:40:37;5.90;99.90
33476;DHT22;19814;48.224;11.422;2023-12-14T04:43:03;5.90;99.90
33476;DHT22;19814;48.224;11.422;2023-12-14T04:45:28;5.80;99.90
33476;DHT22;19814;48.224;11.422;2023-12-14T04:47:53;5.90;99.90
33476;DHT22;19814;48.224;11.422;2023-12-14T04:50:19;5.90;99.90
33476;DHT22;19814;48.224;11.422;2023-12-14T04:52:45;5.90;99.90
33476;DHT22;19814;48.224;11.422;2023-12-14T04:55:11;5.90;99.90
33476;DHT22;19814;48.224;11.422;2023-12-14T04:57:36;5.90;99.90
33476;DHT22;19814;48.224;11.422;2023-12-14T05:00:02;5.90;99.90
33476;DHT22;19814;48.224;11.422;2023-12-14T05:02:28;5.90;99.90
33476;DHT22;19814;48.224;11.422;2023-12-14T05:04:53;5.90;99.90
33476;DHT22;19814;48.224;11.422;2023-12-14T05:07:19;5.90;99.90
33476;DHT22;19814;48.224;11.422;2023-12-14T05:09:45;5.90;99.90
33476;DHT22;19814;48.224;11.422;2023-12-14T05:12:10;5.90;99.90
33476;DHT22;19814;48.224;11.422;2023-12-14T05:14:36;6.00;99.90
33476;DHT22;19814;48.224;11.422;2023-12-14T05:17:01;6.00;99.90
33476;DHT22;19814;48.224;11.422;2023-12-14T05:19:27;6.00;99.90
33476;DHT22;19814;48.224;11.422;2023-12-14T05:21:52;5.90;99.90
33476;DHT22;19814;48.224;11.422;2023-12-14T05:24:19;6.00;99.90
33476;DHT22;19814;48.224;11.422;2023-12-14T05:26:45;6.00;99.90
33476;DHT22;19814;48.224;11.422;2023-12-14T05:29:10;6.00;99.90
33476;DHT22;19814;48.224;11.422;2023-12-14T05:31:35;5.90;99.90
33476;DHT22;19814;48.224;11.422;2023-12-14T05:34:01;6.00;99.90
33476;DHT22;19814;48.224;11.422;2023-12-14T05:36:27;6.00;99.90
33476;DHT22;19814;48.224;11.422;2023-12-14T05:38:53;6.00;99.90
33476;DHT22;19814;48.224;11.422;2023-12-14T05:41:18;5.90;99.90
33476;DHT22;19814;48.224;11.422;2023-12-14T05:43:44;6.00;99.90
33476;DHT22;19814;48.224;11.422;2023-12-14T05:46:09;6.00;99.90
33476;DHT22;19814;48.224;11.422;2023-12-14T05:48:34;5.90;99.90
33476;DHT22;19814;48.224;11.422;2023-12-14T05:51:01;5.90;99.90
33476;DHT22;19814;48.224;11.422;2023-12-14T05:53:27;5.90;99.90
33476;DHT22;19814;48.224;11.422;2023-12-14T05:55:52;5.90;99.90
33476;DHT22;19814;48.224;11.422;2023-12-14T05:58:18;5.90;99.90
33476;DHT22;19814;48.224;11.422;2023-12-14T06:00:43;5.90;99.90
33476;DHT22;19814;48.224;11.422;2023-12-14T06:03:09;5.90;99.90
33476;DHT22;19814;48.224;11.422;2023-12-14T06:05:34;5.90;99.90
33476;DHT22;19814;48.224;11.422;2023-12-14T06:08:00;5.90;99.90
33476;DHT22;19814;48.224;11.422;2023-12-14T06:10:25;5.90;99.90
33476;DHT22;19814;48.224;11.422;2023-12-14T06:12:51;5.90;99.90
33476;DHT22;19814;48.224;11.422;2023-12-14T06:15:16;5.90;99.90
33476;DHT22;19814;48.224;11.422;2023-12-14T06:17:42;5.90;99.90
33476;DHT22;19814;48.224;11.422;2023-12-14T06:20:07;5.90;99.90
33476;DHT22;19814;48.224;11.422;2023-12-14T06:22:35;5.90;99.90
33476;DHT22;19814;48.224;11.422;2023-12-14T06:25:01;5.90;99.90
33476;DHT22;19814;48.224;11.422;2023-12-14T06:27:26;5.90;99.90
33476;DHT22;19814;48.224;11.422;2023-12-14T06:29:52;6.00;99.90
33476;DHT22;19814;48.224;11.422;2023-12-14T06:32:17;6.00;99.90
33476;DHT22;19814;48.224;11.422;2023-12-14T06:34:43;6.10;99.90
33476;DHT22;19814;48.224;11.422;2023-12-14T06:37:08;6.10;99.90
33476;DHT22;19814;48.224;11.422;2023-12-14T06:39:34;6.10;99.90
33476;DHT22;19814;48.224;11.422;2023-12-14T06:42:00;6.10;99.90
33476;DHT22;19814;48.224;11.422;2023-12-14T06:44:26;6.10;99.90
33476;DHT22;19814;48.224;11.422;2023-12-14T06:49:56;6.10;99.90
33476;DHT22;19814;48.224;11.422;2023-12-14T06:52:22;6.00;99.90
33476;DHT22;19814;48.224;11.422;2023-12-14T06:54:48;6.00;99.90
33476;DHT22;19814;48.224;11.422;2023-12-14T06:57:13;6.00;99.90
33476;DHT22;19814;48.224;11.422;2023-12-14T06:59:39;6.10;99.90
33476;DHT22;19814;48.224;11.422;2023-12-14T07:02:04;6.10;99.90
33476;DHT22;19814;48.224;11.422;2023-12-14T07:04:30;6.10;99.90
33476;DHT22;19814;48.224;11.422;2023-12-14T07:06:55;6.10;99.90
33476;DHT22;19814;48.224;11.422;2023-12-14T07:09:21;6.10;99.90
33476;DHT22;19814;48.224;11.422;2023-12-14T07:11:46;6.20;99.90
33476;DHT22;19814;48.224;11.422;2023-12-14T07:14:12;6.10;99.90
33476;DHT22;19814;48.224;11.422;2023-12-14T07:16:38;6.10;99.90
33476;DHT22;19814;48.224;11.422;2023-12-14T07:19:03;6.10;99.90
33476;DHT22;19814;48.224;11.422;2023-12-14T07:21:29;6.10;99.90
33476;DHT22;19814;48.224;11.422;2023-12-14T07:23:54;6.10;99.90
33476;DHT22;19814;48.224;11.422;2023-12-14T07:26:20;6.20;99.90
33476;DHT22;19814;48.224;11.422;2023-12-14T07:28:45;6.20;99.90
33476;DHT22;19814;48.224;11.422;2023-12-14T07:31:11;6.20;99.90
33476;DHT22;19814;48.224;11.422;2023-12-14T07:33:36;6.30;99.90
33476;DHT22;19814;48.224;11.422;2023-12-14T07:36:02;6.20;99.90
33476;DHT22;19814;48.224;11.422;2023-12-14T07:38:27;6.30;99.90
33476;DHT22;19814;48.224;11.422;2023-12-14T07:40:53;6.40;99.90
33476;DHT22;19814;48.224;11.422;2023-12-14T07:43:18;6.40;99.90
33476;DHT22;19814;48.224;11.422;2023-12-14T07:45:43;6.40;99.90
33476;DHT22;19814;48.224;11.422;2023-12-14T07:48:09;6.40;99.90
33476;DHT22;19814;48.224;11.422;2023-12-14T07:50:35;6.40;99.90
33476;DHT22;19814;48.224;11.422;2023-12-14T07:53:00;6.50;99.90
33476;DHT22;19814;48.224;11.422;2023-12-14T07:55:25;6.50;99.90
33476;DHT22;19814;48.224;11.422;2023-12-14T07:57:51;6.60;99.90
33476;DHT22;19814;48.224;11.422;2023-12-14T08:00:16;6.60;99.90
33476;DHT22;19814;48.224;11.422;2023-12-14T08:02:42;6.60;99.90
33476;DHT22;19814;48.224;11.422;2023-12-14T08:05:07;6.60;99.90
33476;DHT22;19814;48.224;11.422;2023-12-14T08:07:34;6.60;99.90
33476;DHT22;19814;48.224;11.422;2023-12-14T08:10:00;6.60;99.90
33476;DHT22;19814;48.224;11.422;2023-12-14T08:12:25;6.60;99.90
33476;DHT22;19814;48.224;11.422;2023-12-14T08:14:51;6.60;99.90
33476;DHT22;19814;48.224;11.422;2023-12-14T08:17:16;6.70;99.90
33476;DHT22;19814;48.224;11.422;2023-12-14T08:19:42;6.60;99.90
33476;DHT22;19814;48.224;11.422;2023-12-14T08:22:08;6.60;99.90
33476;DHT22;19814;48.224;11.422;2023-12-14T08:24:36;6.70;99.90
33476;DHT22;19814;48.224;11.422;2023-12-14T08:27:02;6.70;99.90
33476;DHT22;19814;48.224;11.422;2023-12-14T08:29:27;6.80;99.90
33476;DHT22;19814;48.224;11.422;2023-12-14T08:31:52;6.80;99.90
33476;DHT22;19814;48.224;11.422;2023-12-14T08:34:18;6.80;99.90
33476;DHT22;19814;48.224;11.422;2023-12-14T08:36:44;6.80;99.90
33476;DHT22;19814;48.224;11.422;2023-12-14T08:39:09;6.80;99.90
33476;DHT22;19814;48.224;11.422;2023-12-14T08:41:35;6.80;99.90
33476;DHT22;19814;48.224;11.422;2023-12-14T08:44:01;6.80;99.90
33476;DHT22;19814;48.224;11.422;2023-12-14T08:46:26;6.80;99.90
33476;DHT22;19814;48.224;11.422;2023-12-14T08:48:52;6.80;99.90
33476;DHT22;19814;48.224;11.422;2023-12-14T08:51:17;6.90;99.90
33476;DHT22;19814;48.224;11.422;2023-12-14T08:53:44;6.90;99.90
33476;DHT22;19814;48.224;11.422;2023-12-14T08:56:10;7.00;99.90
33476;DHT22;19814;48.224;11.422;2023-12-14T08:58:35;7.00;99.90
33476;DHT22;19814;48.224;11.422;2023-12-14T09:01:01;7.00;99.90
33476;DHT22;19814;48.224;11.422;2023-12-14T09:03:26;7.00;99.90
33476;DHT22;19814;48.224;11.422;2023-12-14T09:05:52;7.00;99.90
33476;DHT22;19814;48.224;11.422;2023-12-14T09:08:17;7.00;99.90
33476;DHT22;19814;48.224;11.422;2023-12-14T09:10:43;6.90;99.90
33476;DHT22;19814;48.224;11.422;2023-12-14T09:13:09;6.90;99.90
33476;DHT22;19814;48.224;11.422;2023-12-14T09:15:35;6.80;99.90
33476;DHT22;19814;48.224;11.422;2023-12-14T09:18:00;6.80;99.90
33476;DHT22;19814;48.224;11.422;2023-12-14T09:20:26;6.80;99.90
33476;DHT22;19814;48.224;11.422;2023-12-14T09:22:51;6.70;99.90
33476;DHT22;19814;48.224;11.422;2023-12-14T09:25:19;6.80;99.90
33476;DHT22;19814;48.224;11.422;2023-12-14T09:27:44;6.80;99.90
33476;DHT22;19814;48.224;11.422;2023-12-14T09:30:10;6.80;99.90
33476;DHT22;19814;48.224;11.422;2023-12-14T09:32:36;6.80;99.90
33476;DHT22;19814;48.224;11.422;2023-12-14T09:35:01;6.90;99.90
33476;DHT22;19814;48.224;11.422;2023-12-14T09:37:27;7.00;99.90
33476;DHT22;19814;48.224;11.422;2023-12-14T09:39:52;7.00;99.90
33476;DHT22;19814;48.224;11.422;2023-12-14T09:42:18;7.00;99.90
33476;DHT22;19814;48.224;11.422;2023-12-14T09:44:45;7.00;99.90
33476;DHT22;19814;48.224;11.422;2023-12-14T09:47:11;7.00;99.90
33476;DHT22;19814;48.224;11.422;2023-12-14T09:49:36;7.00;99.90
33476;DHT22;19814;48.224;11.422;2023-12-14T09:52:02;7.00;99.90
33476;DHT22;19814;48.224;11.422;2023-12-14T09:54:28;6.90;99.90
33476;DHT22;19814;48.224;11.422;2023-12-14T09:56:53;6.90;99.90
33476;DHT22;19814;48.224;11.422;2023-12-14T09:59:19;6.90;99.90
33476;DHT22;19814;48.224;11.422;2023-12-14T10:01:45;6.80;99.90
33476;DHT22;19814;48.224;11.422;2023-12-14T10:04:12;6.90;99.90
33476;DHT22;19814;48.224;11.422;2023-12-14T10:06:39;6.70;99.90
33476;DHT22;19814;48.224;11.422;2023-12-14T10:09:04;6.50;99.90
33476;DHT22;19814;48.224;11.422;2023-12-14T10:11:35;6.40;99.90
33476;DHT22;19814;48.224;11.422;2023-12-14T10:14:01;6.30;99.90
33476;DHT22;19814;48.224;11.422;2023-12-14T10:16:28;6.30;99.90
33476;DHT22;19814;48.224;11.422;2023-12-14T10:18:55;6.30;99.90
33476;DHT22;19814;48.224;11.422;2023-12-14T10:21:20;6.20;99.90
33476;DHT22;19814;48.224;11.422;2023-12-14T10:23:46;6.20;99.90
33476;DHT22;19814;48.224;11.422;2023-12-14T10:26:11;6.20;99.90
33476;DHT22;19814;48.224;11.422;2023-12-14T10:28:39;6.30;99.90
33476;DHT22;19814;48.224;11.422;2023-12-14T10:31:04;6.50;99.90
33476;DHT22;19814;48.224;11.422;2023-12-14T10:33:30;6.70;99.90
33476;DHT22;19814;48.224;11.422;2023-12-14T10:35:56;6.90;99.90
33476;DHT22;19814;48.224;11.422;2023-12-14T10:38:21;7.40;99.90
33476;DHT22;19814;48.224;11.422;2023-12-14T10:40:49;8.10;99.90
33476;DHT22;19814;48.224;11.422;2023-12-14T10:43:15;8.40;99.90
33476;DHT22;19814;48.224;11.422;2023-12-14T10:45:41;8.40;99.90
33476;DHT22;19814;48.224;11.422;2023-12-14T10:48:08;8.40;99.90
33476;DHT22;19814;48.224;11.422;2023-12-14T10:50:34;8.40;99.90
33476;DHT22;19814;48.224;11.422;2023-12-14T10:53:02;8.60;99.90
33476;DHT22;19814;48.224;11.422;2023-12-14T10:57:56;9.10;99.90
33476;DHT22;19814;48.224;11.422;2023-12-14T11:00:22;9.40;99.90
33476;DHT22;19814;48.224;11.422;2023-12-14T11:02:47;9.40;99.90
33476;DHT22;19814;48.224;11.422;2023-12-14T11:05:14;9.60;99.90
33476;DHT22;19814;48.224;11.422;2023-12-14T11:10:13;10.00;99.90
33476;DHT22;19814;48.224;11.422;2023-12-14T11:12:49;10.50;99.90
33476;DHT22;19814;48.224;11.422;2023-12-14T11:15:16;11.80;99.90
33476;DHT22;19814;48.224;11.422;2023-12-14T11:17:42;13.50;99.90
33476;DHT22;19814;48.224;11.422;2023-12-14T11:20:23;14.10;99.90
33476;DHT22;19814;48.224;11.422;2023-12-14T11:22:49;13.80;99.70
33476;DHT22;19814;48.224;11.422;2023-12-14T11:25:14;13.00;99.60
33476;DHT22;19814;48.224;11.422;2023-12-14T11:27:43;12.10;99.90
33476;DHT22;19814;48.224;11.422;2023-12-14T11:30:10;11.40;99.90
33476;DHT22;19814;48.224;11.422;2023-12-14T11:32:36;10.80;99.90
33476;DHT22;19814;48.224;11.422;2023-12-14T11:35:01;10.30;99.90
33476;DHT22;19814;48.224;11.422;2023-12-14T11:37:27;9.80;99.90
33476;DHT22;19814;48.224;11.422;2023-12-14T11:39:53;9.50;99.90
33476;DHT22;19814;48.224;11.422;2023-12-14T11:42:20;9.40;99.90
33476;DHT22;19814;48.224;11.422;2023-12-14T11:44:45;9.30;99.90
33476;DHT22;19814;48.224;11.422;2023-12-14T11:47:10;9.30;99.90
33476;DHT22;19814;48.224;11.422;2023-12-14T11:49:36;9.30;99.90
33476;DHT22;19814;48.224;11.422;2023-12-14T11:52:02;9.20;99.90
33476;DHT22;19814;48.224;11.422;2023-12-14T11:54:29;9.20;99.90
33476;DHT22;19814;48.224;11.422;2023-12-14T11:56:54;9.10;99.90
33476;DHT22;19814;48.224;11.422;2023-12-14T11:59:19;9.20;99.90
33476;DHT22;19814;48.224;11.422;2023-12-14T12:01:59;9.30;99.90
33476;DHT22;19814;48.224;11.422;2023-12-14T12:04:25;9.40;99.90
33476;DHT22;19814;48.224;11.422;2023-12-14T12:07:06;9.30;99.90
33476;DHT22;19814;48.224;11.422;2023-12-14T12:09:42;9.00;99.90
33476;DHT22;19814;48.224;11.422;2023-12-14T12:12:08;8.90;99.90
33476;DHT22;19814;48.224;11.422;2023-12-14T12:14:35;8.80;99.90
33476;DHT22;19814;48.224;11.422;2023-12-14T12:17:01;8.70;99.90
33476;DHT22;19814;48.224;11.422;2023-12-14T12:19:30;8.60;99.90
33476;DHT22;19814;48.224;11.422;2023-12-14T12:21:55;8.60;99.90
33476;DHT22;19814;48.224;11.422;2023-12-14T12:24:21;8.60;99.90
33476;DHT22;19814;48.224;11.422;2023-12-14T12:26:46;8.60;99.90
33476;DHT22;19814;48.224;11.422;2023-12-14T12:29:12;8.50;99.90
33476;DHT22;19814;48.224;11.422;2023-12-14T12:31:37;8.50;99.90
33476;DHT22;19814;48.224;11.422;2023-12-14T12:34:03;8.40;99.90
33476;DHT22;19814;48.224;11.422;2023-12-14T12:36:28;8.40;99.90
33476;DHT22;19814;48.224;11.422;2023-12-14T12:38:54;8.30;99.90
33476;DHT22;19814;48.224;11.422;2023-12-14T12:41:19;8.30;99.90
33476;DHT22;19814;48.224;11.422;2023-12-14T12:43:45;8.40;99.90
33476;DHT22;19814;48.224;11.422;2023-12-14T12:46:10;8.30;99.90
33476;DHT22;19814;48.224;11.422;2023-12-14T12:48:36;8.20;99.90
33476;DHT22;19814;48.224;11.422;2023-12-14T12:51:02;8.20;99.90
33476;DHT22;19814;48.224;11.422;2023-12-14T12:53:27;8.30;99.90
33476;DHT22;19814;48.224;11.422;2023-12-14T12:55:53;8.30;99.90
33476;DHT22;19814;48.224;11.422;2023-12-14T12:58:18;8.30;99.90
33476;DHT22;19814;48.224;11.422;2023-12-14T13:00:44;8.30;99.90
33476;DHT22;19814;48.224;11.422;2023-12-14T13:03:09;8.20;99.90
33476;DHT22;19814;48.224;11.422;2023-12-14T13:05:36;8.20;99.90
33476;DHT22;19814;48.224;11.422;2023-12-14T13:08:01;8.20;99.90
33476;DHT22;19814;48.224;11.422;2023-12-14T13:10:27;8.20;99.90
33476;DHT22;19814;48.224;11.422;2023-12-14T13:12:53;8.30;99.90
33476;DHT22;19814;48.224;11.422;2023-12-14T13:15:18;8.30;99.90
33476;DHT22;19814;48.224;11.422;2023-12-14T13:17:44;8.30;99.90
33476;DHT22;19814;48.224;11.422;2023-12-14T13:20:09;8.30;99.90
33476;DHT22;19814;48.224;11.422;2023-12-14T13:22:35;8.30;99.90
33476;DHT22;19814;48.224;11.422;2023-12-14T13:25:00;8.20;99.90
33476;DHT22;19814;48.224;11.422;2023-12-14T13:27:26;8.20;99.90
33476;DHT22;19814;48.224;11.422;2023-12-14T13:29:51;8.20;99.90
33476;DHT22;19814;48.224;11.422;2023-12-14T13:32:16;8.10;99.90
33476;DHT22;19814;48.224;11.422;2023-12-14T13:34:42;8.10;99.90
33476;DHT22;19814;48.224;11.422;2023-12-14T13:37:08;8.10;99.90
33476;DHT22;19814;48.224;11.422;2023-12-14T13:39:34;8.10;99.90
33476;DHT22;19814;48.224;11.422;2023-12-14T13:42:05;8.10;99.90
33476;DHT22;19814;48.224;11.422;2023-12-14T13:44:32;8.10;99.90
33476;DHT22;19814;48.224;11.422;2023-12-14T13:47:01;8.20;99.90
33476;DHT22;19814;48.224;11.422;2023-12-14T13:49:26;8.10;99.90
33476;DHT22;19814;48.224;11.422;2023-12-14T13:51:51;8.20;99.90
33476;DHT22;19814;48.224;11.422;2023-12-14T13:54:17;8.30;99.90
33476;DHT22;19814;48.224;11.422;2023-12-14T13:56:42;8.30;99.90
33476;DHT22;19814;48.224;11.422;2023-12-14T13:59:08;8.30;99.90
33476;DHT22;19814;48.224;11.422;2023-12-14T14:01:33;8.40;99.90
33476;DHT22;19814;48.224;11.422;2023-12-14T14:03:59;8.40;99.90
33476;DHT22;19814;48.224;11.422;2023-12-14T14:06:24;8.40;99.90
33476;DHT22;19814;48.224;11.422;2023-12-14T14:08:49;8.30;99.90
33476;DHT22;19814;48.224;11.422;2023-12-14T14:11:15;8.30;99.90
33476;DHT22;19814;48.224;11.422;2023-12-14T14:13:40;8.20;99.90
33476;DHT22;19814;48.224;11.422;2023-12-14T14:16:06;8.10;99.90
33476;DHT22;19814;48.224;11.422;2023-12-14T14:18:32;8.10;99.90
33476;DHT22;19814;48.224;11.422;2023-12-14T14:20:57;8.00;99.90
33476;DHT22;19814;48.224;11.422;2023-12-14T14:23:24;8.00;99.90
33476;DHT22;19814;48.224;11.422;2023-12-14T14:25:51;7.90;99.90
33476;DHT22;19814;48.224;11.422;2023-12-14T14:28:22;7.90;99.90
33476;DHT22;19814;48.224;11.422;2023-12-14T14:30:48;7.90;99.90
33476;DHT22;19814;48.224;11.422;2023-12-14T14:33:14;7.90;99.90
33476;DHT22;19814;48.224;11.422;2023-12-14T14:35:43;7.90;99.90
33476;DHT22;19814;48.224;11.422;2023-12-14T14:38:09;7.80;99.90
33476;DHT22;19814;48.224;11.422;2023-12-14T14:40:34;7.70;99.90
33476;DHT22;19814;48.224;11.422;2023-12-14T14:43:00;7.60;99.90
33476;DHT22;19814;48.224;11.422;2023-12-14T14:45:25;7.60;99.90
33476;DHT22;19814;48.224;11.422;2023-12-14T14:47:51;7.60;99.90
33476;DHT22;19814;48.224;11.422;2023-12-14T14:50:16;7.50;99.90
33476;DHT22;19814;48.224;11.422;2023-12-14T14:52:42;7.60;99.90
33476;DHT22;19814;48.224;11.422;2023-12-14T14:55:07;7.50;99.90
33476;DHT22;19814;48.224;11.422;2023-12-14T14:57:33;7.60;99.90
33476;DHT22;19814;48.224;11.422;2023-12-14T14:59:58;7.60;99.90
33476;DHT22;19814;48.224;11.422;2023-12-14T15:02:24;7.60;99.90
33476;DHT22;19814;48.224;11.422;2023-12-14T15:04:51;7.60;99.90
33476;DHT22;19814;48.224;11.422;2023-12-14T15:07:16;7.60;99.90
33476;DHT22;19814;48.224;11.422;2023-12-14T15:09:42;7.50;99.90
33476;DHT22;19814;48.224;11.422;2023-12-14T15:12:07;7.50;99.90
33476;DHT22;19814;48.224;11.422;2023-12-14T15:14:33;7.50;99.90
33476;DHT22;19814;48.224;11.422;2023-12-14T15:16:58;7.50;99.90
33476;DHT22;19814;48.224;11.422;2023-12-14T15:19:24;7.50;99.90
33476;DHT22;19814;48.224;11.422;2023-12-14T15:21:49;7.40;99.90
33476;DHT22;19814;48.224;11.422;2023-12-14T15:24:14;7.50;99.90
33476;DHT22;19814;48.224;11.422;2023-12-14T15:26:41;7.40;99.90
33476;DHT22;19814;48.224;11.422;2023-12-14T15:29:06;7.40;99.90